createdAt,value
2023-05-17T00:00:01.808Z,20.05
2023-05-17T00:02:31.435Z,19.38
2023-05-17T00:04:59.520Z,21.63
2023-05-17T00:07:27.712Z,20.95
2023-05-17T00:09:55.588Z,22.00
2023-05-17T00:12:23.775Z,20.25
2023-05-17T00:14:53.438Z,20.02
2023-05-17T00:17:23.438Z,18.92
2023-05-17T00:19:53.023Z,19.52
2023-05-17T00:22:21.361Z,20.60
2023-05-17T00:24:49.274Z,22.20
2023-05-17T00:27:17.637Z,20.58
2023-05-17T00:29:45.571Z,20.25
2023-05-17T00:32:13.726Z,20.45
2023-05-17T00:34:41.847Z,22.27
2023-05-17T00:37:11.350Z,35.13
2023-05-17T00:39:39.397Z,48.42
2023-05-17T00:42:07.776Z,26.45
2023-05-17T00:44:35.772Z,47.40
2023-05-17T00:47:04.137Z,24.08
2023-05-17T00:49:32.116Z,25.10
2023-05-17T00:52:00.622Z,22.70
2023-05-17T00:54:30.067Z,24.73
2023-05-17T00:56:59.388Z,24.05
2023-05-17T00:59:27.578Z,24.35
2023-05-17T01:02:08.742Z,39.30
2023-05-17T01:04:37.114Z,24.13
2023-05-17T01:07:05.787Z,30.52
2023-05-17T01:09:35.120Z,23.38
2023-05-17T01:12:09.530Z,22.38
2023-05-17T01:14:45.696Z,40.80
2023-05-17T01:17:24.257Z,28.60
2023-05-17T01:19:59.020Z,22.90
2023-05-17T01:22:34.100Z,60.30
2023-05-17T01:25:13.739Z,38.85
2023-05-17T01:27:47.602Z,63.65
2023-05-17T01:30:18.076Z,16.98
2023-05-17T01:32:47.232Z,15.05
2023-05-17T01:35:16.716Z,17.27
2023-05-17T01:37:44.928Z,16.52
2023-05-17T01:40:13.265Z,21.98
2023-05-17T01:42:44.533Z,18.77
2023-05-17T01:45:18.419Z,24.83
2023-05-17T01:47:51.726Z,19.58
2023-05-17T01:50:24.795Z,37.92
2023-05-17T01:52:55.177Z,21.60
2023-05-17T01:55:30.233Z,16.50
2023-05-17T01:58:00.567Z,16.23
2023-05-17T02:00:30.653Z,16.60
2023-05-17T02:02:59.124Z,18.63
2023-05-17T02:05:27.180Z,13.90
2023-05-17T02:07:55.530Z,15.75
2023-05-17T02:10:23.724Z,14.57
2023-05-17T02:12:51.876Z,13.68
2023-05-17T02:15:21.178Z,14.07
2023-05-17T02:17:49.611Z,10.68
2023-05-17T02:20:17.604Z,11.30
2023-05-17T02:22:45.846Z,12.45
2023-05-17T02:25:13.891Z,10.80
2023-05-17T02:27:42.072Z,12.23
2023-05-17T02:30:10.498Z,8.15
2023-05-17T02:32:40.761Z,9.60
2023-05-17T02:35:09.684Z,11.55
2023-05-17T02:37:37.906Z,16.70
2023-05-17T02:40:10.490Z,16.10
2023-05-17T02:42:39.120Z,8.52
2023-05-17T02:45:08.158Z,9.23
2023-05-17T02:47:36.439Z,8.98
2023-05-17T02:50:06.656Z,10.30
2023-05-17T02:52:34.968Z,8.82
2023-05-17T02:55:02.987Z,7.65
2023-05-17T02:57:31.195Z,6.85
2023-05-17T02:59:59.147Z,8.70
2023-05-17T03:02:27.447Z,8.45
2023-05-17T03:04:55.557Z,6.10
2023-05-17T03:07:25.056Z,6.93
2023-05-17T03:09:53.029Z,7.38
2023-05-17T03:12:21.230Z,9.20
2023-05-17T03:14:49.219Z,8.32
2023-05-17T03:17:17.376Z,8.02
2023-05-17T03:19:45.307Z,14.32
2023-05-17T03:22:13.519Z,9.93
2023-05-17T03:24:42.803Z,9.95
2023-05-17T03:27:11.036Z,7.57
2023-05-17T03:29:38.962Z,7.75
2023-05-17T03:32:08.100Z,6.97
2023-05-17T03:34:36.118Z,6.60
2023-05-17T03:37:04.437Z,6.88
2023-05-17T03:39:32.363Z,7.00
2023-05-17T03:42:02.322Z,8.73
2023-05-17T03:44:30.390Z,28.27
2023-05-17T03:46:58.546Z,9.50
2023-05-17T03:49:26.530Z,9.18
2023-05-17T03:51:54.711Z,13.75
2023-05-17T03:54:22.682Z,8.80
2023-05-17T03:56:50.826Z,10.85
2023-05-17T03:59:20.160Z,9.48
2023-05-17T04:01:48.337Z,10.68
2023-05-17T04:04:16.468Z,9.52
2023-05-17T04:06:45.035Z,9.98
2023-05-17T04:09:15.070Z,10.70
2023-05-17T04:11:43.535Z,8.70
2023-05-17T04:14:11.441Z,9.93
2023-05-17T04:16:40.949Z,9.63
2023-05-17T04:19:09.249Z,9.55
2023-05-17T04:21:37.545Z,10.93
2023-05-17T04:24:05.955Z,8.88
2023-05-17T04:26:34.515Z,9.38
2023-05-17T04:29:02.438Z,10.27
2023-05-17T04:31:32.265Z,10.07
2023-05-17T04:34:02.579Z,11.77
2023-05-17T04:36:31.015Z,9.07
2023-05-17T04:38:58.995Z,9.45
2023-05-17T04:41:27.302Z,8.07
2023-05-17T04:43:55.672Z,8.50
2023-05-17T04:46:23.832Z,9.10
2023-05-17T04:48:51.932Z,8.13
2023-05-17T04:51:21.517Z,8.85
2023-05-17T04:53:49.449Z,8.75
2023-05-17T04:56:17.584Z,9.82
2023-05-17T04:58:45.586Z,11.00
2023-05-17T05:01:13.809Z,9.77
2023-05-17T05:03:42.103Z,19.13
2023-05-17T05:06:11.729Z,9.77
2023-05-17T05:08:41.825Z,9.27
2023-05-17T05:11:10.033Z,10.63
2023-05-17T05:13:38.924Z,10.43
2023-05-17T05:16:08.035Z,9.60
2023-05-17T05:18:36.530Z,9.02
2023-05-17T05:21:04.975Z,8.57
2023-05-17T05:23:33.058Z,9.70
2023-05-17T05:26:02.658Z,10.35
2023-05-17T05:28:30.964Z,10.82
2023-05-17T05:31:00.275Z,14.98
2023-05-17T05:33:28.399Z,12.02
2023-05-17T05:35:56.596Z,15.23
2023-05-17T05:38:24.721Z,35.50
2023-05-17T05:40:52.647Z,48.15
2023-05-17T05:43:22.207Z,86.05
2023-05-17T05:45:51.013Z,12.75
2023-05-17T05:48:19.380Z,14.27
2023-05-17T05:50:47.808Z,10.23
2023-05-17T05:53:19.316Z,21.70
2023-05-17T05:55:48.001Z,8.77
2023-05-17T05:58:16.199Z,9.40
2023-05-17T06:00:45.444Z,8.45
2023-05-17T06:03:13.624Z,7.90
2023-05-17T06:05:41.668Z,7.45
2023-05-17T06:08:09.995Z,7.47
2023-05-17T06:10:37.939Z,8.40
2023-05-17T06:13:06.172Z,8.30
2023-05-17T06:15:34.364Z,9.07
2023-05-17T06:18:04.042Z,8.60
2023-05-17T06:20:32.205Z,7.93
2023-05-17T06:23:00.582Z,9.27
2023-05-17T06:25:28.682Z,9.45
2023-05-17T06:27:56.943Z,8.68
2023-05-17T06:30:25.061Z,8.80
2023-05-17T06:32:53.309Z,9.65
2023-05-17T06:35:22.716Z,8.73
2023-05-17T06:37:50.904Z,8.82
2023-05-17T06:40:18.888Z,8.18
2023-05-17T06:42:47.098Z,7.93
2023-05-17T06:45:15.364Z,8.77
2023-05-17T06:47:43.688Z,9.32
2023-05-17T06:50:12.026Z,9.25
2023-05-17T06:52:41.668Z,7.95
2023-05-17T06:55:10.251Z,9.20
2023-05-17T06:57:38.469Z,10.27
2023-05-17T07:00:10.853Z,9.88
2023-05-17T07:02:39.228Z,9.68
2023-05-17T07:05:08.346Z,10.35
2023-05-17T07:07:36.629Z,8.32
2023-05-17T07:10:07.232Z,9.20
2023-05-17T07:12:35.958Z,8.07
2023-05-17T07:15:03.951Z,9.43
2023-05-17T07:17:32.172Z,9.32
2023-05-17T07:20:00.453Z,9.18
2023-05-17T07:22:29.383Z,9.05
2023-05-17T07:24:57.339Z,9.05
2023-05-17T07:27:28.126Z,9.77
2023-05-17T07:29:56.028Z,7.25
2023-05-17T07:32:24.265Z,8.60
2023-05-17T07:34:52.221Z,8.00
2023-05-17T07:37:20.765Z,8.88
2023-05-17T07:39:48.700Z,8.07
2023-05-17T07:42:17.416Z,8.80
2023-05-17T07:44:48.567Z,8.45
2023-05-17T07:47:17.026Z,9.98
2023-05-17T07:49:45.110Z,10.93
2023-05-17T07:52:13.449Z,9.77
2023-05-17T07:54:41.370Z,8.13
2023-05-17T07:57:09.563Z,7.55
2023-05-17T07:59:37.475Z,8.80
2023-05-17T08:02:07.239Z,8.60
2023-05-17T08:04:35.445Z,8.95
2023-05-17T08:07:03.972Z,8.60
2023-05-17T08:09:34.870Z,8.85
2023-05-17T08:12:03.171Z,10.40
2023-05-17T08:14:31.289Z,9.77
2023-05-17T08:16:59.487Z,9.85
2023-05-17T08:19:31.670Z,8.25
2023-05-17T08:21:59.998Z,9.02
2023-05-17T08:24:27.987Z,9.25
2023-05-17T08:26:56.497Z,9.30
2023-05-17T08:29:24.451Z,11.02
2023-05-17T08:31:52.673Z,11.07
2023-05-17T08:34:20.603Z,9.57
2023-05-17T08:36:50.223Z,11.00
2023-05-17T08:39:18.196Z,9.68
2023-05-17T08:41:47.707Z,9.43
2023-05-17T08:44:17.593Z,11.25
2023-05-17T08:46:53.226Z,10.15
2023-05-17T08:49:22.340Z,9.80
2023-05-17T08:51:54.820Z,12.15
2023-05-17T08:56:53.190Z,11.68
2023-05-17T08:59:21.398Z,8.98
2023-05-17T09:01:50.994Z,10.93
2023-05-17T09:04:19.402Z,9.73
2023-05-17T09:06:47.595Z,12.23
2023-05-17T09:09:18.724Z,11.70
2023-05-17T09:11:47.442Z,10.13
2023-05-17T09:14:17.174Z,8.98
2023-05-17T09:16:45.360Z,7.63
2023-05-17T09:19:16.610Z,9.63
2023-05-17T09:21:47.733Z,11.15
2023-05-17T09:24:20.495Z,10.65
2023-05-17T09:26:48.687Z,10.27
2023-05-17T09:29:17.537Z,9.82
2023-05-17T09:31:46.211Z,10.00
2023-05-17T09:34:14.444Z,9.35
2023-05-17T09:36:43.831Z,9.75
2023-05-17T09:39:13.484Z,10.00
2023-05-17T09:41:45.367Z,8.52
2023-05-17T09:44:14.231Z,8.90
2023-05-17T09:46:43.673Z,7.32
2023-05-17T09:49:11.601Z,7.97
2023-05-17T09:51:42.349Z,9.93
2023-05-17T09:54:11.007Z,10.30
2023-05-17T09:56:39.838Z,10.98
2023-05-17T10:04:24.061Z,15.13
2023-05-17T10:06:52.736Z,14.93
2023-05-17T10:09:24.011Z,16.30
2023-05-17T10:11:55.526Z,16.02
2023-05-17T10:14:27.914Z,15.18
2023-05-17T10:16:56.291Z,15.30
2023-05-17T10:19:26.398Z,16.48
2023-05-17T10:22:05.235Z,17.05
2023-05-17T10:24:49.935Z,15.38
2023-05-17T10:27:18.862Z,17.00
2023-05-17T10:29:50.544Z,15.70
2023-05-17T10:32:29.454Z,15.88
2023-05-17T10:35:10.623Z,16.67
2023-05-17T10:40:13.373Z,15.77
2023-05-17T10:42:44.569Z,17.40
2023-05-17T10:45:13.418Z,14.85
2023-05-17T10:47:42.997Z,16.42
2023-05-17T10:50:18.548Z,15.55
2023-05-17T10:52:52.260Z,16.05
2023-05-17T10:55:22.181Z,15.57
2023-05-17T10:58:20.227Z,13.93
2023-05-17T11:00:50.053Z,14.95
2023-05-17T11:03:20.129Z,17.27
2023-05-17T11:06:25.544Z,15.40
2023-05-17T11:09:20.773Z,15.50
2023-05-17T11:12:05.115Z,13.50
2023-05-17T11:15:01.810Z,13.73
2023-05-17T11:17:36.238Z,13.20
2023-05-17T11:20:10.914Z,14.00
2023-05-17T11:22:51.437Z,14.07
2023-05-17T11:25:20.278Z,14.18
2023-05-17T11:27:49.065Z,14.30
2023-05-17T11:30:19.563Z,14.95
2023-05-17T11:32:49.077Z,15.38
2023-05-17T11:35:18.717Z,12.23
2023-05-17T11:37:49.549Z,12.02
2023-05-17T11:40:26.336Z,12.55
2023-05-17T11:43:16.216Z,12.32
2023-05-17T11:45:46.081Z,12.90
2023-05-17T11:48:14.562Z,11.55
2023-05-17T11:50:43.479Z,11.75
2023-05-17T11:53:13.200Z,10.93
2023-05-17T11:55:42.020Z,9.65
2023-05-17T11:58:12.232Z,10.23
2023-05-17T12:00:42.007Z,11.20
2023-05-17T12:03:17.561Z,12.85
2023-05-17T12:05:47.260Z,13.35
2023-05-17T12:08:18.564Z,14.95
2023-05-17T12:10:49.162Z,12.63
2023-05-17T12:13:17.142Z,12.73
2023-05-17T12:15:46.956Z,13.68
2023-05-17T12:18:15.226Z,13.45
2023-05-17T12:20:56.918Z,13.55
2023-05-17T12:23:30.389Z,13.63
2023-05-17T12:26:09.502Z,14.60
2023-05-17T12:28:38.368Z,15.57
2023-05-17T12:31:08.383Z,17.65
2023-05-17T12:33:39.290Z,12.98
2023-05-17T12:36:09.697Z,14.03
2023-05-17T12:38:42.033Z,14.60
2023-05-17T12:41:15.597Z,14.30
2023-05-17T12:43:57.125Z,15.40
2023-05-17T12:46:33.588Z,15.63
2023-05-17T12:49:06.547Z,17.13
2023-05-17T12:51:41.763Z,17.40
2023-05-17T12:54:11.668Z,15.38
2023-05-17T12:56:44.721Z,10.73
2023-05-17T12:59:16.876Z,12.88
2023-05-17T13:01:46.642Z,12.20
2023-05-17T13:04:16.056Z,13.35
2023-05-17T13:06:48.571Z,11.35
2023-05-17T13:11:51.858Z,14.65
2023-05-17T13:14:35.135Z,13.77
2023-05-17T13:17:03.759Z,11.93
2023-05-17T13:19:32.434Z,13.35
2023-05-17T13:22:07.544Z,15.93
2023-05-17T13:24:40.604Z,16.55
2023-05-17T13:27:09.638Z,16.67
2023-05-17T13:29:42.150Z,16.98
2023-05-17T13:32:22.509Z,18.75
2023-05-17T13:34:54.309Z,18.20
2023-05-17T13:37:23.227Z,20.60
2023-05-17T13:39:55.045Z,19.77
2023-05-17T13:45:08.988Z,22.55
2023-05-17T13:47:37.355Z,24.77
2023-05-17T13:50:06.155Z,22.52
2023-05-17T13:52:34.300Z,24.20
2023-05-17T13:55:03.555Z,24.33
2023-05-17T13:57:31.702Z,25.25
2023-05-17T13:59:59.614Z,25.52
2023-05-17T14:02:27.797Z,27.05
2023-05-17T14:04:55.774Z,25.60
2023-05-17T14:07:23.906Z,25.15
2023-05-17T14:09:51.846Z,26.10
2023-05-17T14:12:21.772Z,25.02
2023-05-17T14:14:50.172Z,25.70
2023-05-17T14:17:18.756Z,24.77
2023-05-17T14:19:46.928Z,27.05
2023-05-17T14:22:15.636Z,24.30
2023-05-17T14:24:43.906Z,26.70
2023-05-17T14:27:12.620Z,23.60
2023-05-17T14:29:41.925Z,23.20
2023-05-17T14:32:12.855Z,23.48
2023-05-17T14:34:40.875Z,25.63
2023-05-17T14:37:09.416Z,25.25
2023-05-17T14:39:37.296Z,25.23
2023-05-17T14:42:06.151Z,22.55
2023-05-17T14:44:34.633Z,21.40
2023-05-17T14:47:04.293Z,20.67
2023-05-17T14:49:32.180Z,18.85
2023-05-17T14:52:00.369Z,20.08
2023-05-17T14:54:29.826Z,21.30
2023-05-17T14:56:58.474Z,23.08
2023-05-17T14:59:26.449Z,23.65
2023-05-17T15:01:54.615Z,23.52
2023-05-17T15:04:23.968Z,22.45
2023-05-17T15:06:52.670Z,23.75
2023-05-17T15:09:22.715Z,25.60
2023-05-17T15:11:51.376Z,25.42
2023-05-17T15:14:22.109Z,23.63
2023-05-17T15:16:50.540Z,24.42
2023-05-17T15:19:18.586Z,20.88
2023-05-17T15:21:48.600Z,21.80
2023-05-17T15:24:17.950Z,20.17
2023-05-17T15:26:46.206Z,23.85
2023-05-17T15:29:14.092Z,24.77
2023-05-17T15:31:42.411Z,25.85
2023-05-17T15:34:10.507Z,25.42
2023-05-17T15:36:38.693Z,27.40
2023-05-17T15:39:08.609Z,26.63
2023-05-17T15:41:37.356Z,25.17
2023-05-17T15:44:07.922Z,23.27
2023-05-17T15:46:36.136Z,21.88
2023-05-17T15:49:04.156Z,25.27
2023-05-17T15:51:32.414Z,25.15
2023-05-17T15:54:00.362Z,24.27
2023-05-17T15:56:29.879Z,23.50
2023-05-17T15:58:57.826Z,23.70
2023-05-17T16:01:26.113Z,24.50
2023-05-17T16:03:54.122Z,23.48
2023-05-17T16:06:22.377Z,24.67
2023-05-17T16:08:50.464Z,22.17
2023-05-17T16:11:18.634Z,22.17
2023-05-17T16:13:47.854Z,22.05
2023-05-17T16:16:16.175Z,21.70
2023-05-17T16:18:44.178Z,24.13
2023-05-17T16:21:12.441Z,23.58
2023-05-17T16:23:40.344Z,23.30
2023-05-17T16:26:08.876Z,23.52
2023-05-17T16:28:36.947Z,23.73
2023-05-17T16:31:06.651Z,24.30
2023-05-17T16:33:35.076Z,23.75
2023-05-17T16:36:04.297Z,21.30
2023-05-17T16:38:32.234Z,22.60
2023-05-17T16:41:03.176Z,23.23
2023-05-17T16:43:31.334Z,23.13
2023-05-17T16:45:59.657Z,23.48
2023-05-17T16:48:28.995Z,25.25
2023-05-17T16:50:59.260Z,23.83
2023-05-17T16:53:28.193Z,24.23
2023-05-17T16:55:56.439Z,22.65
2023-05-17T16:58:26.022Z,23.35
2023-05-17T17:00:54.212Z,25.20
2023-05-17T17:03:22.215Z,20.98
2023-05-17T17:05:51.799Z,21.33
2023-05-17T17:08:19.711Z,21.02
2023-05-17T17:10:47.960Z,23.83
2023-05-17T17:13:15.855Z,23.98
2023-05-17T17:15:44.117Z,23.65
2023-05-17T17:18:12.095Z,23.20
2023-05-17T17:20:40.628Z,24.02
2023-05-17T17:23:10.145Z,29.08
2023-05-17T17:25:38.481Z,26.63
2023-05-17T17:28:06.781Z,28.27
2023-05-17T17:30:34.974Z,29.30
2023-05-17T17:33:03.093Z,23.90
2023-05-17T17:35:31.577Z,22.52
2023-05-17T17:37:59.578Z,21.98
2023-05-17T17:40:29.286Z,25.40
2023-05-17T17:42:57.506Z,24.17
2023-05-17T17:45:25.840Z,23.40
2023-05-17T17:47:53.893Z,25.80
2023-05-17T17:50:22.429Z,26.23
2023-05-17T17:52:51.171Z,28.83
2023-05-17T17:55:19.391Z,31.75
2023-05-17T17:57:48.931Z,30.65
2023-05-17T18:00:17.654Z,31.73
2023-05-17T18:02:45.778Z,30.40
2023-05-17T18:05:14.146Z,29.85
2023-05-17T18:07:42.160Z,32.67
2023-05-17T18:10:11.660Z,28.05
2023-05-17T18:12:39.590Z,28.33
2023-05-17T18:15:10.767Z,27.42
2023-05-17T18:17:39.148Z,27.98
2023-05-17T18:20:08.585Z,37.70
2023-05-17T18:22:36.582Z,33.10
2023-05-17T18:25:05.092Z,30.63
2023-05-17T18:27:33.441Z,30.33
2023-05-17T18:30:01.797Z,32.25
2023-05-17T18:32:31.341Z,32.13
2023-05-17T18:34:59.664Z,34.60
2023-05-17T18:37:27.640Z,31.90
2023-05-17T18:39:56.099Z,32.97
2023-05-17T18:42:24.966Z,32.25
2023-05-17T18:44:53.350Z,33.08
2023-05-17T18:47:23.289Z,33.17
2023-05-17T18:49:52.988Z,31.20
2023-05-17T18:52:20.956Z,33.03
2023-05-17T18:54:49.135Z,34.30
2023-05-17T18:57:17.013Z,33.83
2023-05-17T18:59:45.173Z,31.08
2023-05-17T19:02:13.075Z,32.90
2023-05-17T19:04:41.615Z,34.63
2023-05-17T19:07:10.899Z,31.92
2023-05-17T19:09:39.300Z,29.05
2023-05-17T19:12:08.187Z,27.58
2023-05-17T19:14:38.303Z,28.73
2023-05-17T19:17:06.702Z,28.85
2023-05-17T19:19:35.109Z,29.75
2023-05-17T19:22:04.673Z,28.42
2023-05-17T19:24:35.285Z,28.23
2023-05-17T19:27:03.192Z,25.60
2023-05-17T19:29:33.002Z,26.05
2023-05-17T19:32:01.181Z,25.42
2023-05-17T19:34:29.484Z,24.17
2023-05-17T19:36:58.639Z,24.60
2023-05-17T19:39:26.810Z,26.38
2023-05-17T19:41:56.386Z,24.30
2023-05-17T19:44:24.557Z,25.40
2023-05-17T19:46:52.679Z,25.23
2023-05-17T19:49:20.859Z,21.83
2023-05-17T19:51:49.086Z,22.77
2023-05-17T19:54:17.431Z,23.48
2023-05-17T19:56:45.983Z,22.75
2023-05-17T19:59:15.475Z,24.65
2023-05-17T20:01:43.476Z,25.80
2023-05-17T20:04:11.791Z,30.38
2023-05-17T20:06:39.930Z,31.58
2023-05-17T20:09:08.150Z,33.17
2023-05-17T20:11:36.105Z,33.08
2023-05-17T20:14:04.595Z,36.45
2023-05-17T20:16:34.075Z,34.15
2023-05-17T20:19:02.462Z,34.67
2023-05-17T20:21:31.336Z,35.53
2023-05-17T20:24:03.670Z,37.05
2023-05-17T20:31:33.881Z,34.85
2023-05-17T20:34:02.070Z,40.40
2023-05-17T20:36:29.996Z,39.10
2023-05-17T20:38:58.643Z,39.88
2023-05-17T20:41:26.568Z,39.90
2023-05-17T20:43:54.772Z,42.35
2023-05-17T20:46:22.878Z,44.30
2023-05-17T20:48:53.692Z,42.83
2023-05-17T20:51:22.383Z,40.78
2023-05-17T20:53:50.573Z,42.22
2023-05-17T20:56:19.122Z,42.42
2023-05-17T20:58:47.430Z,42.63
2023-05-17T21:01:15.697Z,42.63
2023-05-17T21:03:44.294Z,43.80
2023-05-17T21:06:13.674Z,44.97
2023-05-17T21:08:42.753Z,45.85
2023-05-17T21:11:10.888Z,45.40
2023-05-17T21:13:39.048Z,48.33
2023-05-17T21:16:07.699Z,43.67
2023-05-17T21:18:36.045Z,47.20
2023-05-17T21:21:04.079Z,46.25
2023-05-17T21:23:33.740Z,47.53
2023-05-17T21:26:01.681Z,48.70
2023-05-17T21:28:30.613Z,48.55
2023-05-17T21:30:58.609Z,47.38
2023-05-17T21:33:26.831Z,47.03
2023-05-17T21:35:54.792Z,49.03
2023-05-17T21:38:22.986Z,47.97
2023-05-17T21:40:52.211Z,52.15
2023-05-17T21:43:20.586Z,50.53
2023-05-17T21:45:48.469Z,53.17
2023-05-17T21:48:16.640Z,48.10
2023-05-17T21:50:44.579Z,50.72
2023-05-17T21:53:13.326Z,53.25
2023-05-17T21:56:00.607Z,50.40
2023-05-17T21:58:31.495Z,49.58
2023-05-17T22:00:59.518Z,49.47
2023-05-17T22:03:27.828Z,49.15
2023-05-17T22:05:55.797Z,52.00
2023-05-17T22:08:24.333Z,51.65
2023-05-17T22:10:54.223Z,50.72
2023-05-17T22:13:26.156Z,49.28
2023-05-17T22:15:57.405Z,50.55
2023-05-17T22:18:27.406Z,48.97
2023-05-17T22:20:59.100Z,49.70
2023-05-17T22:23:27.978Z,51.60
2023-05-17T22:25:57.093Z,49.22
2023-05-17T22:28:25.321Z,50.15
2023-05-17T22:30:55.065Z,51.70
2023-05-17T22:33:23.518Z,51.63
2023-05-17T22:35:53.652Z,52.17
2023-05-17T22:38:23.239Z,52.50
2023-05-17T22:40:51.339Z,50.80
2023-05-17T22:43:21.397Z,50.92
2023-05-17T22:45:50.525Z,51.60
2023-05-17T22:48:20.898Z,50.25
2023-05-17T22:50:48.850Z,52.55
2023-05-17T22:53:18.375Z,53.60
2023-05-17T22:55:48.775Z,52.58
2023-05-17T22:58:16.982Z,53.17
2023-05-17T23:00:45.208Z,50.90
2023-05-17T23:03:13.584Z,51.08
2023-05-17T23:05:43.275Z,49.80
2023-05-17T23:08:12.831Z,51.35
2023-05-17T23:10:40.964Z,51.42
2023-05-17T23:13:09.102Z,50.38
2023-05-17T23:15:37.122Z,51.95
2023-05-17T23:18:05.639Z,50.38
2023-05-17T23:20:34.910Z,52.38
2023-05-17T23:23:04.483Z,49.92
2023-05-17T23:25:32.580Z,50.90
2023-05-17T23:28:02.922Z,51.92
2023-05-17T23:30:30.865Z,52.45
2023-05-17T23:33:00.112Z,50.15
2023-05-17T23:35:28.282Z,50.58
2023-05-17T23:37:56.769Z,53.00
2023-05-17T23:40:26.043Z,50.88
2023-05-17T23:42:54.234Z,51.67
2023-05-17T23:45:22.206Z,51.33
2023-05-17T23:47:50.390Z,50.63
2023-05-17T23:50:18.534Z,50.45
2023-05-17T23:52:47.303Z,49.42
2023-05-17T23:55:15.215Z,48.58
2023-05-17T23:57:44.686Z,48.20
